Pagrindinis puslapis
METAR-TAF:

METAR-TAF

Oro uostai :

Osijekas, Kroatija

platuma: 45-27N, ilguma: 018-48E, Aukštis: 88 m

Dabartinis oras

Ataskaita buvo paskelbta 12 minutes, ne 18:30 UTC
Vėjas 5 kt iš Šiaurės
Temperatūra 12°C
Drėgmė 62%
Slėgis 1025 hPa
Matomumas 10 km arba daugiau
nėra debesų žemiau 1500 m ir nėra kamuolinių lietaus debesų

METAR: LDOS 191830Z 35005KT CAVOK 12/05 Q1025

Laikas: 20:42 (18:42 UTC)

Prognozė

Ataskaita buvo paskelbta 1 valandą ir 17 minutes, ne 17:25 UTC
Prognozė galioja nuo 19 metu 18 UTC su 20 metu 18 UTC
Vėjas 7 kt iš Šiaurės
Matomumas 10 km arba daugiau
nėra debesų žemiau 1500 m ir nėra kamuolinių lietaus debesų

TAF: LDOS 191725Z 1918/2018 35007KT CAVOK TX19/2012Z TN07/2004Z

Orai ataskaitas ir orų prognozės (METAR, TAF).

turimą stotys yra geltonos ir raudonos taškus žemėlapyje.

Perkelti pele per norėdami pamatyti stoties vardą.

Tada spustelėkite, norėdami matyti oro stebėjimo ir prognozės.

Norėdami pakeisti žemėlapį: spustelėkite ant žalios mygtukų su juodo kryžiaus žemyn,; žalią mygtuką su brūkšneliu, jei norite nutolinti; arba žalių rodyklių gretimoms žemėlapius.


METAR-TAF: